sensor_id;sensor_type;location;lat;lon;timestamp;P1;durP1;ratioP1;P2;durP2;ratioP2
7501;SDS011;3792;47.740;7.606;2024-03-23T00:53:48;1.90;;;1.57;;
7501;SDS011;3792;47.740;7.606;2024-03-23T00:56:14;1.70;;;1.60;;
7501;SDS011;3792;47.740;7.606;2024-03-23T00:58:41;3.07;;;1.57;;
7501;SDS011;3792;47.740;7.606;2024-03-23T01:01:08;4.03;;;1.93;;
7501;SDS011;3792;47.740;7.606;2024-03-23T01:03:35;2.03;;;1.37;;
7501;SDS011;3792;47.740;7.606;2024-03-23T01:06:01;5.23;;;2.10;;
7501;SDS011;3792;47.740;7.606;2024-03-23T01:08:30;1.77;;;1.60;;
7501;SDS011;3792;47.740;7.606;2024-03-23T01:10:56;1.97;;;1.67;;
7501;SDS011;3792;47.740;7.606;2024-03-23T01:13:24;2.67;;;1.70;;
7501;SDS011;3792;47.740;7.606;2024-03-23T01:15:50;2.83;;;1.67;;
7501;SDS011;3792;47.740;7.606;2024-03-23T01:18:18;1.87;;;1.60;;
7501;SDS011;3792;47.740;7.606;2024-03-23T01:20:44;2.77;;;2.00;;
7501;SDS011;3792;47.740;7.606;2024-03-23T01:23:11;1.60;;;1.50;;
7501;SDS011;3792;47.740;7.606;2024-03-23T01:25:39;2.33;;;1.73;;
7501;SDS011;3792;47.740;7.606;2024-03-23T01:28:06;3.40;;;1.50;;
7501;SDS011;3792;47.740;7.606;2024-03-23T01:30:32;3.57;;;1.90;;
7501;SDS011;3792;47.740;7.606;2024-03-23T01:33:00;4.80;;;1.80;;
7501;SDS011;3792;47.740;7.606;2024-03-23T01:35:26;2.30;;;1.60;;
7501;SDS011;3792;47.740;7.606;2024-03-23T01:37:53;2.73;;;1.60;;
7501;SDS011;3792;47.740;7.606;2024-03-23T01:40:19;1.67;;;1.43;;
7501;SDS011;3792;47.740;7.606;2024-03-23T01:42:56;5.80;;;1.73;;
7501;SDS011;3792;47.740;7.606;2024-03-23T01:45:22;4.23;;;1.50;;
7501;SDS011;3792;47.740;7.606;2024-03-23T01:47:49;1.73;;;1.63;;
7501;SDS011;3792;47.740;7.606;2024-03-23T01:50:15;1.70;;;1.60;;
7501;SDS011;3792;47.740;7.606;2024-03-23T01:52:43;2.80;;;1.77;;
7501;SDS011;3792;47.740;7.606;2024-03-23T01:55:09;3.40;;;1.93;;
7501;SDS011;3792;47.740;7.606;2024-03-23T01:57:37;2.77;;;2.30;;
7501;SDS011;3792;47.740;7.606;2024-03-23T02:00:05;2.83;;;1.97;;
7501;SDS011;3792;47.740;7.606;2024-03-23T02:02:33;2.47;;;2.27;;
7501;SDS011;3792;47.740;7.606;2024-03-23T02:04:59;3.80;;;2.40;;
7501;SDS011;3792;47.740;7.606;2024-03-23T02:07:26;4.70;;;2.63;;
7501;SDS011;3792;47.740;7.606;2024-03-23T02:09:52;4.33;;;2.23;;
7501;SDS011;3792;47.740;7.606;2024-03-23T02:12:20;3.37;;;2.50;;
7501;SDS011;3792;47.740;7.606;2024-03-23T02:14:46;2.30;;;2.07;;
7501;SDS011;3792;47.740;7.606;2024-03-23T02:17:15;3.07;;;2.10;;
7501;SDS011;3792;47.740;7.606;2024-03-23T02:19:41;4.73;;;2.00;;
7501;SDS011;3792;47.740;7.606;2024-03-23T02:22:08;3.63;;;2.30;;
7501;SDS011;3792;47.740;7.606;2024-03-23T02:24:37;3.53;;;2.30;;
7501;SDS011;3792;47.740;7.606;2024-03-23T02:27:04;2.43;;;2.17;;
7501;SDS011;3792;47.740;7.606;2024-03-23T02:29:30;2.87;;;2.33;;
7501;SDS011;3792;47.740;7.606;2024-03-23T02:31:57;2.30;;;2.10;;
7501;SDS011;3792;47.740;7.606;2024-03-23T02:34:24;5.47;;;2.50;;
7501;SDS011;3792;47.740;7.606;2024-03-23T02:36:51;3.63;;;2.37;;
7501;SDS011;3792;47.740;7.606;2024-03-23T02:39:17;3.53;;;2.00;;
7501;SDS011;3792;47.740;7.606;2024-03-23T02:41:45;4.60;;;2.03;;
7501;SDS011;3792;47.740;7.606;2024-03-23T02:44:13;3.90;;;2.37;;
7501;SDS011;3792;47.740;7.606;2024-03-23T02:46:40;3.30;;;2.13;;
7501;SDS011;3792;47.740;7.606;2024-03-23T02:49:06;4.03;;;2.20;;
7501;SDS011;3792;47.740;7.606;2024-03-23T02:51:33;2.10;;;2.00;;
7501;SDS011;3792;47.740;7.606;2024-03-23T02:53:59;2.57;;;2.00;;
7501;SDS011;3792;47.740;7.606;2024-03-23T02:56:26;5.33;;;2.30;;
7501;SDS011;3792;47.740;7.606;2024-03-23T02:58:54;4.27;;;2.13;;
7501;SDS011;3792;47.740;7.606;2024-03-23T03:01:21;6.03;;;2.30;;
7501;SDS011;3792;47.740;7.606;2024-03-23T03:03:47;3.80;;;2.23;;
7501;SDS011;3792;47.740;7.606;2024-03-23T03:06:22;4.60;;;2.17;;
7501;SDS011;3792;47.740;7.606;2024-03-23T03:08:48;2.50;;;2.30;;
7501;SDS011;3792;47.740;7.606;2024-03-23T03:11:15;3.00;;;2.00;;
7501;SDS011;3792;47.740;7.606;2024-03-23T03:13:41;3.53;;;2.30;;
7501;SDS011;3792;47.740;7.606;2024-03-23T03:16:10;2.30;;;2.10;;
7501;SDS011;3792;47.740;7.606;2024-03-23T03:18:36;3.23;;;1.90;;
7501;SDS011;3792;47.740;7.606;2024-03-23T03:21:03;3.00;;;2.40;;
7501;SDS011;3792;47.740;7.606;2024-03-23T03:23:31;3.90;;;2.03;;
7501;SDS011;3792;47.740;7.606;2024-03-23T03:25:58;3.33;;;1.90;;
7501;SDS011;3792;47.740;7.606;2024-03-23T03:28:24;4.53;;;2.40;;
7501;SDS011;3792;47.740;7.606;2024-03-23T03:30:55;3.17;;;1.90;;
7501;SDS011;3792;47.740;7.606;2024-03-23T03:33:23;4.03;;;2.00;;
7501;SDS011;3792;47.740;7.606;2024-03-23T03:35:50;3.13;;;2.07;;
7501;SDS011;3792;47.740;7.606;2024-03-23T03:38:17;4.67;;;2.30;;
7501;SDS011;3792;47.740;7.606;2024-03-23T03:40:44;3.63;;;1.90;;
7501;SDS011;3792;47.740;7.606;2024-03-23T03:43:10;3.33;;;2.00;;
7501;SDS011;3792;47.740;7.606;2024-03-23T03:45:37;2.23;;;1.87;;
7501;SDS011;3792;47.740;7.606;2024-03-23T03:48:04;3.00;;;2.17;;
7501;SDS011;3792;47.740;7.606;2024-03-23T03:50:33;4.90;;;2.27;;
7501;SDS011;3792;47.740;7.606;2024-03-23T03:52:59;2.80;;;2.20;;
7501;SDS011;3792;47.740;7.606;2024-03-23T03:55:26;3.33;;;2.00;;
7501;SDS011;3792;47.740;7.606;2024-03-23T03:57:52;3.23;;;2.23;;
7501;SDS011;3792;47.740;7.606;2024-03-23T04:00:19;3.20;;;2.30;;
7501;SDS011;3792;47.740;7.606;2024-03-23T04:02:45;2.60;;;2.30;;
7501;SDS011;3792;47.740;7.606;2024-03-23T04:05:13;4.63;;;2.67;;
7501;SDS011;3792;47.740;7.606;2024-03-23T04:07:41;4.77;;;2.70;;
7501;SDS011;3792;47.740;7.606;2024-03-23T04:10:09;4.90;;;2.77;;
7501;SDS011;3792;47.740;7.606;2024-03-23T04:12:35;6.40;;;3.03;;
7501;SDS011;3792;47.740;7.606;2024-03-23T04:15:02;6.20;;;3.03;;
7501;SDS011;3792;47.740;7.606;2024-03-23T04:17:30;5.07;;;3.30;;
7501;SDS011;3792;47.740;7.606;2024-03-23T04:19:59;4.30;;;2.90;;
7501;SDS011;3792;47.740;7.606;2024-03-23T04:22:26;4.37;;;3.20;;
7501;SDS011;3792;47.740;7.606;2024-03-23T04:24:54;4.70;;;3.43;;
7501;SDS011;3792;47.740;7.606;2024-03-23T04:27:21;6.77;;;3.57;;
7501;SDS011;3792;47.740;7.606;2024-03-23T04:29:48;3.63;;;3.27;;
7501;SDS011;3792;47.740;7.606;2024-03-23T04:32:14;4.07;;;3.33;;
7501;SDS011;3792;47.740;7.606;2024-03-23T04:34:42;4.50;;;3.27;;
7501;SDS011;3792;47.740;7.606;2024-03-23T04:37:08;5.57;;;3.73;;
7501;SDS011;3792;47.740;7.606;2024-03-23T04:39:35;4.33;;;3.40;;
7501;SDS011;3792;47.740;7.606;2024-03-23T04:42:04;4.30;;;3.50;;
7501;SDS011;3792;47.740;7.606;2024-03-23T04:44:31;4.73;;;4.07;;
7501;SDS011;3792;47.740;7.606;2024-03-23T04:46:58;5.37;;;4.03;;
7501;SDS011;3792;47.740;7.606;2024-03-23T04:49:25;4.03;;;3.67;;
7501;SDS011;3792;47.740;7.606;2024-03-23T04:51:52;7.80;;;4.57;;
7501;SDS011;3792;47.740;7.606;2024-03-23T04:54:19;4.73;;;3.97;;
7501;SDS011;3792;47.740;7.606;2024-03-23T04:56:46;7.17;;;4.00;;
7501;SDS011;3792;47.740;7.606;2024-03-23T04:59:13;6.23;;;4.43;;
7501;SDS011;3792;47.740;7.606;2024-03-23T05:01:40;5.83;;;4.17;;
7501;SDS011;3792;47.740;7.606;2024-03-23T05:04:07;6.23;;;4.40;;
7501;SDS011;3792;47.740;7.606;2024-03-23T05:06:35;7.43;;;4.50;;
7501;SDS011;3792;47.740;7.606;2024-03-23T05:09:01;6.97;;;4.77;;
7501;SDS011;3792;47.740;7.606;2024-03-23T05:11:31;5.90;;;4.93;;
7501;SDS011;3792;47.740;7.606;2024-03-23T05:13:57;5.53;;;4.70;;
7501;SDS011;3792;47.740;7.606;2024-03-23T05:16:25;5.97;;;4.73;;
7501;SDS011;3792;47.740;7.606;2024-03-23T05:18:52;5.40;;;4.57;;
7501;SDS011;3792;47.740;7.606;2024-03-23T05:21:19;6.57;;;4.53;;
7501;SDS011;3792;47.740;7.606;2024-03-23T05:23:45;6.87;;;4.50;;
7501;SDS011;3792;47.740;7.606;2024-03-23T05:26:12;4.80;;;4.40;;
7501;SDS011;3792;47.740;7.606;2024-03-23T05:28:39;9.80;;;4.50;;
7501;SDS011;3792;47.740;7.606;2024-03-23T05:31:06;5.70;;;4.33;;
7501;SDS011;3792;47.740;7.606;2024-03-23T05:33:35;5.70;;;5.17;;
7501;SDS011;3792;47.740;7.606;2024-03-23T05:36:03;5.33;;;4.73;;
7501;SDS011;3792;47.740;7.606;2024-03-23T05:38:30;6.70;;;4.93;;
7501;SDS011;3792;47.740;7.606;2024-03-23T05:40:58;6.17;;;4.47;;
7501;SDS011;3792;47.740;7.606;2024-03-23T05:43:25;5.13;;;4.70;;
7501;SDS011;3792;47.740;7.606;2024-03-23T05:45:53;5.70;;;5.20;;
7501;SDS011;3792;47.740;7.606;2024-03-23T05:48:19;7.40;;;5.33;;
7501;SDS011;3792;47.740;7.606;2024-03-23T05:50:48;7.90;;;5.07;;
7501;SDS011;3792;47.740;7.606;2024-03-23T05:53:15;6.07;;;4.60;;
7501;SDS011;3792;47.740;7.606;2024-03-23T05:55:42;7.23;;;5.63;;
7501;SDS011;3792;47.740;7.606;2024-03-23T05:58:08;7.00;;;4.83;;
7501;SDS011;3792;47.740;7.606;2024-03-23T06:00:36;5.53;;;4.90;;
7501;SDS011;3792;47.740;7.606;2024-03-23T06:03:02;4.93;;;4.43;;
7501;SDS011;3792;47.740;7.606;2024-03-23T06:05:29;7.23;;;5.20;;
7501;SDS011;3792;47.740;7.606;2024-03-23T06:07:57;5.77;;;5.10;;
7501;SDS011;3792;47.740;7.606;2024-03-23T06:10:24;6.23;;;5.50;;
7501;SDS011;3792;47.740;7.606;2024-03-23T06:12:50;7.53;;;5.20;;
7501;SDS011;3792;47.740;7.606;2024-03-23T06:15:17;8.37;;;6.63;;
7501;SDS011;3792;47.740;7.606;2024-03-23T06:17:43;7.30;;;5.80;;
7501;SDS011;3792;47.740;7.606;2024-03-23T06:20:10;6.40;;;5.80;;
7501;SDS011;3792;47.740;7.606;2024-03-23T06:22:36;6.13;;;4.90;;
7501;SDS011;3792;47.740;7.606;2024-03-23T06:25:05;5.77;;;5.27;;
7501;SDS011;3792;47.740;7.606;2024-03-23T06:27:31;5.93;;;5.10;;
7501;SDS011;3792;47.740;7.606;2024-03-23T06:29:58;8.57;;;6.43;;
7501;SDS011;3792;47.740;7.606;2024-03-23T06:32:24;7.27;;;6.10;;
7501;SDS011;3792;47.740;7.606;2024-03-23T06:34:51;6.93;;;5.67;;
7501;SDS011;3792;47.740;7.606;2024-03-23T06:37:17;7.03;;;5.53;;
7501;SDS011;3792;47.740;7.606;2024-03-23T06:39:45;7.13;;;5.70;;
7501;SDS011;3792;47.740;7.606;2024-03-23T06:42:13;6.33;;;5.40;;
7501;SDS011;3792;47.740;7.606;2024-03-23T06:44:40;7.60;;;5.27;;
7501;SDS011;3792;47.740;7.606;2024-03-23T06:47:06;7.10;;;5.53;;
7501;SDS011;3792;47.740;7.606;2024-03-23T06:49:33;5.20;;;4.70;;
7501;SDS011;3792;47.740;7.606;2024-03-23T06:51:59;4.93;;;3.90;;
7501;SDS011;3792;47.740;7.606;2024-03-23T06:54:26;2.43;;;2.03;;
7501;SDS011;3792;47.740;7.606;2024-03-23T06:56:52;2.37;;;1.60;;
7501;SDS011;3792;47.740;7.606;2024-03-23T06:59:21;4.27;;;3.77;;
7501;SDS011;3792;47.740;7.606;2024-03-23T07:01:47;2.27;;;1.70;;
7501;SDS011;3792;47.740;7.606;2024-03-23T07:04:14;1.77;;;1.50;;
7501;SDS011;3792;47.740;7.606;2024-03-23T07:06:42;0.67;;;0.67;;
7501;SDS011;3792;47.740;7.606;2024-03-23T07:09:09;1.87;;;1.70;;
7501;SDS011;3792;47.740;7.606;2024-03-23T07:11:36;0.73;;;0.63;;
7501;SDS011;3792;47.740;7.606;2024-03-23T07:14:03;3.20;;;1.93;;
7501;SDS011;3792;47.740;7.606;2024-03-23T07:16:30;1.90;;;1.03;;
7501;SDS011;3792;47.740;7.606;2024-03-23T07:18:57;1.17;;;1.07;;
7501;SDS011;3792;47.740;7.606;2024-03-23T07:21:23;0.40;;;0.40;;
7501;SDS011;3792;47.740;7.606;2024-03-23T07:23:50;1.97;;;0.80;;
7501;SDS011;3792;47.740;7.606;2024-03-23T07:26:17;0.50;;;0.50;;
7501;SDS011;3792;47.740;7.606;2024-03-23T07:28:44;0.37;;;0.37;;
7501;SDS011;3792;47.740;7.606;2024-03-23T07:31:12;0.40;;;0.40;;
7501;SDS011;3792;47.740;7.606;2024-03-23T07:33:43;0.60;;;0.60;;
7501;SDS011;3792;47.740;7.606;2024-03-23T07:36:11;1.00;;;0.40;;
7501;SDS011;3792;47.740;7.606;2024-03-23T07:38:37;1.00;;;0.40;;
7501;SDS011;3792;47.740;7.606;2024-03-23T07:41:06;2.53;;;1.07;;
7501;SDS011;3792;47.740;7.606;2024-03-23T07:43:34;1.93;;;1.03;;
7501;SDS011;3792;47.740;7.606;2024-03-23T07:46:01;1.30;;;0.80;;
7501;SDS011;3792;47.740;7.606;2024-03-23T07:48:29;2.37;;;0.80;;
7501;SDS011;3792;47.740;7.606;2024-03-23T07:50:58;2.50;;;1.10;;
7501;SDS011;3792;47.740;7.606;2024-03-23T07:53:25;1.97;;;1.10;;
7501;SDS011;3792;47.740;7.606;2024-03-23T07:55:54;1.70;;;1.03;;
7501;SDS011;3792;47.740;7.606;2024-03-23T07:58:20;3.80;;;1.00;;
7501;SDS011;3792;47.740;7.606;2024-03-23T08:00:47;2.40;;;0.90;;
7501;SDS011;3792;47.740;7.606;2024-03-23T08:03:13;1.10;;;0.60;;
7501;SDS011;3792;47.740;7.606;2024-03-23T08:05:41;3.97;;;1.50;;
7501;SDS011;3792;47.740;7.606;2024-03-23T08:08:08;2.03;;;0.93;;
7501;SDS011;3792;47.740;7.606;2024-03-23T08:10:35;3.63;;;1.00;;
7501;SDS011;3792;47.740;7.606;2024-03-23T08:13:02;3.33;;;1.30;;
7501;SDS011;3792;47.740;7.606;2024-03-23T08:15:30;2.10;;;1.10;;
7501;SDS011;3792;47.740;7.606;2024-03-23T08:17:59;2.37;;;1.03;;
7501;SDS011;3792;47.740;7.606;2024-03-23T08:20:25;4.30;;;1.50;;
7501;SDS011;3792;47.740;7.606;2024-03-23T08:22:53;3.03;;;1.30;;
7501;SDS011;3792;47.740;7.606;2024-03-23T08:25:20;4.50;;;1.43;;
7501;SDS011;3792;47.740;7.606;2024-03-23T08:27:47;4.30;;;1.30;;
7501;SDS011;3792;47.740;7.606;2024-03-23T08:30:13;5.07;;;1.80;;
7501;SDS011;3792;47.740;7.606;2024-03-23T08:32:41;3.93;;;1.40;;
7501;SDS011;3792;47.740;7.606;2024-03-23T08:35:08;9.20;;;3.57;;
7501;SDS011;3792;47.740;7.606;2024-03-23T08:37:35;11.57;;;6.40;;
7501;SDS011;3792;47.740;7.606;2024-03-23T08:40:01;4.70;;;2.90;;
7501;SDS011;3792;47.740;7.606;2024-03-23T08:42:31;6.70;;;2.57;;
7501;SDS011;3792;47.740;7.606;2024-03-23T08:44:57;3.40;;;1.70;;
7501;SDS011;3792;47.740;7.606;2024-03-23T08:47:24;7.20;;;1.80;;
7501;SDS011;3792;47.740;7.606;2024-03-23T08:49:50;7.27;;;1.90;;
7501;SDS011;3792;47.740;7.606;2024-03-23T08:52:17;4.63;;;1.77;;
7501;SDS011;3792;47.740;7.606;2024-03-23T08:54:43;6.10;;;1.80;;
7501;SDS011;3792;47.740;7.606;2024-03-23T08:57:11;6.23;;;2.20;;
7501;SDS011;3792;47.740;7.606;2024-03-23T08:59:38;6.70;;;2.20;;
7501;SDS011;3792;47.740;7.606;2024-03-23T09:02:05;5.90;;;2.03;;
7501;SDS011;3792;47.740;7.606;2024-03-23T09:04:31;5.83;;;2.20;;
7501;SDS011;3792;47.740;7.606;2024-03-23T09:06:58;4.67;;;2.00;;
7501;SDS011;3792;47.740;7.606;2024-03-23T09:09:25;5.60;;;2.60;;
7501;SDS011;3792;47.740;7.606;2024-03-23T09:11:52;7.10;;;2.50;;
7501;SDS011;3792;47.740;7.606;2024-03-23T09:14:18;6.80;;;2.33;;
7501;SDS011;3792;47.740;7.606;2024-03-23T09:16:49;7.40;;;2.47;;
7501;SDS011;3792;47.740;7.606;2024-03-23T09:19:16;7.47;;;2.20;;
7501;SDS011;3792;47.740;7.606;2024-03-23T09:21:44;6.07;;;2.60;;
7501;SDS011;3792;47.740;7.606;2024-03-23T09:24:10;5.67;;;2.27;;
7501;SDS011;3792;47.740;7.606;2024-03-23T09:26:37;4.40;;;2.40;;
7501;SDS011;3792;47.740;7.606;2024-03-23T09:29:03;7.57;;;2.37;;
7501;SDS011;3792;47.740;7.606;2024-03-23T09:31:30;7.07;;;2.27;;
7501;SDS011;3792;47.740;7.606;2024-03-23T09:34:00;9.50;;;2.10;;
7501;SDS011;3792;47.740;7.606;2024-03-23T09:36:27;8.63;;;2.10;;
7501;SDS011;3792;47.740;7.606;2024-03-23T09:38:53;7.00;;;2.67;;
7501;SDS011;3792;47.740;7.606;2024-03-23T09:41:20;8.17;;;2.50;;
7501;SDS011;3792;47.740;7.606;2024-03-23T09:43:46;7.73;;;2.40;;
7501;SDS011;3792;47.740;7.606;2024-03-23T09:46:14;8.50;;;2.00;;
7501;SDS011;3792;47.740;7.606;2024-03-23T09:48:41;4.80;;;2.10;;
7501;SDS011;3792;47.740;7.606;2024-03-23T09:51:12;6.87;;;2.57;;
7501;SDS011;3792;47.740;7.606;2024-03-23T09:53:39;7.17;;;2.37;;
7501;SDS011;3792;47.740;7.606;2024-03-23T09:56:07;5.57;;;2.00;;
7501;SDS011;3792;47.740;7.606;2024-03-23T09:58:34;6.33;;;2.70;;
7501;SDS011;3792;47.740;7.606;2024-03-23T10:01:01;8.17;;;2.17;;
7501;SDS011;3792;47.740;7.606;2024-03-23T10:03:31;8.23;;;2.40;;
7501;SDS011;3792;47.740;7.606;2024-03-23T10:06:01;8.43;;;2.60;;
7501;SDS011;3792;47.740;7.606;2024-03-23T10:08:32;6.33;;;2.30;;
7501;SDS011;3792;47.740;7.606;2024-03-23T10:11:11;8.63;;;3.00;;
7501;SDS011;3792;47.740;7.606;2024-03-23T10:13:38;6.27;;;2.43;;
7501;SDS011;3792;47.740;7.606;2024-03-23T10:16:08;8.40;;;2.73;;
7501;SDS011;3792;47.740;7.606;2024-03-23T10:18:36;6.17;;;2.27;;
7501;SDS011;3792;47.740;7.606;2024-03-23T10:21:07;10.47;;;2.60;;
7501;SDS011;3792;47.740;7.606;2024-03-23T10:23:36;9.53;;;2.37;;
7501;SDS011;3792;47.740;7.606;2024-03-23T10:26:12;7.47;;;2.80;;
7501;SDS011;3792;47.740;7.606;2024-03-23T10:28:50;8.03;;;2.70;;
7501;SDS011;3792;47.740;7.606;2024-03-23T10:31:22;7.77;;;2.43;;
7501;SDS011;3792;47.740;7.606;2024-03-23T10:33:48;4.97;;;2.40;;
7501;SDS011;3792;47.740;7.606;2024-03-23T10:36:15;10.23;;;2.30;;
7501;SDS011;3792;47.740;7.606;2024-03-23T10:38:43;5.23;;;2.00;;
7501;SDS011;3792;47.740;7.606;2024-03-23T10:41:11;8.57;;;2.33;;
7501;SDS011;3792;47.740;7.606;2024-03-23T10:43:37;6.37;;;2.40;;
7501;SDS011;3792;47.740;7.606;2024-03-23T10:46:05;8.67;;;2.43;;
7501;SDS011;3792;47.740;7.606;2024-03-23T10:48:31;11.00;;;3.07;;
7501;SDS011;3792;47.740;7.606;2024-03-23T10:50:59;9.37;;;2.00;;
7501;SDS011;3792;47.740;7.606;2024-03-23T10:53:25;4.37;;;2.20;;
7501;SDS011;3792;47.740;7.606;2024-03-23T10:55:55;6.23;;;3.37;;
7501;SDS011;3792;47.740;7.606;2024-03-23T10:58:22;6.63;;;2.97;;
7501;SDS011;3792;47.740;7.606;2024-03-23T11:00:52;6.40;;;2.20;;
7501;SDS011;3792;47.740;7.606;2024-03-23T11:06:02;3.37;;;1.60;;
7501;SDS011;3792;47.740;7.606;2024-03-23T11:08:33;4.43;;;1.53;;
7501;SDS011;3792;47.740;7.606;2024-03-23T11:13:47;3.87;;;1.50;;
7501;SDS011;3792;47.740;7.606;2024-03-23T11:16:15;5.03;;;1.30;;
7501;SDS011;3792;47.740;7.606;2024-03-23T11:18:43;3.80;;;1.33;;
7501;SDS011;3792;47.740;7.606;2024-03-23T11:21:10;4.43;;;2.10;;
7501;SDS011;3792;47.740;7.606;2024-03-23T11:26:41;2.10;;;1.00;;
7501;SDS011;3792;47.740;7.606;2024-03-23T11:29:10;1.83;;;1.27;;
7501;SDS011;3792;47.740;7.606;2024-03-23T11:31:39;2.27;;;1.50;;
7501;SDS011;3792;47.740;7.606;2024-03-23T11:34:11;4.07;;;1.43;;
7501;SDS011;3792;47.740;7.606;2024-03-23T11:36:38;3.43;;;1.20;;
7501;SDS011;3792;47.740;7.606;2024-03-23T11:39:11;4.00;;;1.30;;
7501;SDS011;3792;47.740;7.606;2024-03-23T11:41:49;2.17;;;1.30;;
7501;SDS011;3792;47.740;7.606;2024-03-23T11:44:16;6.33;;;1.70;;
7501;SDS011;3792;47.740;7.606;2024-03-23T11:46:45;4.90;;;1.60;;
7501;SDS011;3792;47.740;7.606;2024-03-23T11:49:21;4.60;;;1.50;;
7501;SDS011;3792;47.740;7.606;2024-03-23T11:51:49;4.43;;;2.07;;
7501;SDS011;3792;47.740;7.606;2024-03-23T11:54:15;5.37;;;1.50;;
7501;SDS011;3792;47.740;7.606;2024-03-23T11:56:55;4.87;;;1.70;;
7501;SDS011;3792;47.740;7.606;2024-03-23T11:59:35;6.90;;;2.03;;
7501;SDS011;3792;47.740;7.606;2024-03-23T12:02:05;7.43;;;2.07;;
7501;SDS011;3792;47.740;7.606;2024-03-23T12:04:32;8.77;;;2.50;;
7501;SDS011;3792;47.740;7.606;2024-03-23T12:07:11;8.23;;;2.07;;
7501;SDS011;3792;47.740;7.606;2024-03-23T12:09:38;8.53;;;2.40;;
7501;SDS011;3792;47.740;7.606;2024-03-23T12:12:08;8.30;;;2.53;;
7501;SDS011;3792;47.740;7.606;2024-03-23T12:14:36;7.10;;;2.30;;
7501;SDS011;3792;47.740;7.606;2024-03-23T12:17:10;7.63;;;2.50;;
7501;SDS011;3792;47.740;7.606;2024-03-23T12:19:36;5.30;;;1.87;;
7501;SDS011;3792;47.740;7.606;2024-03-23T12:22:04;5.33;;;2.10;;
7501;SDS011;3792;47.740;7.606;2024-03-23T12:24:31;6.80;;;2.00;;
7501;SDS011;3792;47.740;7.606;2024-03-23T12:26:59;3.43;;;1.77;;
7501;SDS011;3792;47.740;7.606;2024-03-23T12:29:31;6.50;;;2.37;;
7501;SDS011;3792;47.740;7.606;2024-03-23T12:31:59;5.53;;;2.30;;
7501;SDS011;3792;47.740;7.606;2024-03-23T12:34:25;5.90;;;2.00;;
7501;SDS011;3792;47.740;7.606;2024-03-23T12:36:52;7.47;;;2.30;;
7501;SDS011;3792;47.740;7.606;2024-03-23T12:39:19;5.90;;;1.87;;
7501;SDS011;3792;47.740;7.606;2024-03-23T12:41:46;8.67;;;2.20;;
7501;SDS011;3792;47.740;7.606;2024-03-23T12:44:12;7.87;;;2.60;;
7501;SDS011;3792;47.740;7.606;2024-03-23T12:46:42;9.40;;;2.63;;
7501;SDS011;3792;47.740;7.606;2024-03-23T12:49:08;6.87;;;2.13;;
7501;SDS011;3792;47.740;7.606;2024-03-23T12:51:35;7.83;;;2.40;;
7501;SDS011;3792;47.740;7.606;2024-03-23T12:54:01;3.60;;;1.83;;
7501;SDS011;3792;47.740;7.606;2024-03-23T12:56:28;5.43;;;1.90;;
7501;SDS011;3792;47.740;7.606;2024-03-23T12:58:54;3.83;;;2.40;;
7501;SDS011;3792;47.740;7.606;2024-03-23T13:01:22;7.10;;;2.53;;
7501;SDS011;3792;47.740;7.606;2024-03-23T13:03:49;6.73;;;2.93;;
7501;SDS011;3792;47.740;7.606;2024-03-23T13:06:17;9.67;;;2.90;;
7501;SDS011;3792;47.740;7.606;2024-03-23T13:08:43;9.43;;;2.60;;
7501;SDS011;3792;47.740;7.606;2024-03-23T13:11:10;4.60;;;1.87;;
7501;SDS011;3792;47.740;7.606;2024-03-23T13:13:38;5.53;;;2.20;;
7501;SDS011;3792;47.740;7.606;2024-03-23T13:16:11;6.87;;;2.10;;
7501;SDS011;3792;47.740;7.606;2024-03-23T13:18:38;8.37;;;2.00;;
7501;SDS011;3792;47.740;7.606;2024-03-23T13:21:06;5.90;;;1.70;;
7501;SDS011;3792;47.740;7.606;2024-03-23T13:23:32;8.27;;;2.30;;
7501;SDS011;3792;47.740;7.606;2024-03-23T13:26:01;7.33;;;2.03;;
7501;SDS011;3792;47.740;7.606;2024-03-23T13:28:29;7.87;;;2.27;;
7501;SDS011;3792;47.740;7.606;2024-03-23T13:30:56;2.43;;;1.60;;
7501;SDS011;3792;47.740;7.606;2024-03-23T13:33:23;4.67;;;1.83;;
7501;SDS011;3792;47.740;7.606;2024-03-23T13:35:51;4.37;;;1.37;;
7501;SDS011;3792;47.740;7.606;2024-03-23T13:38:19;3.97;;;1.57;;
7501;SDS011;3792;47.740;7.606;2024-03-23T13:40:53;5.40;;;2.50;;
7501;SDS011;3792;47.740;7.606;2024-03-23T13:43:20;2.83;;;1.30;;
7501;SDS011;3792;47.740;7.606;2024-03-23T13:45:48;2.93;;;1.10;;
7501;SDS011;3792;47.740;7.606;2024-03-23T13:48:21;4.00;;;1.30;;
7501;SDS011;3792;47.740;7.606;2024-03-23T13:50:56;14.50;;;2.80;;
7501;SDS011;3792;47.740;7.606;2024-03-23T13:53:24;4.67;;;1.50;;
7501;SDS011;3792;47.740;7.606;2024-03-23T13:55:51;4.17;;;1.00;;
7501;SDS011;3792;47.740;7.606;2024-03-23T13:58:18;2.87;;;1.00;;
7501;SDS011;3792;47.740;7.606;2024-03-23T14:00:45;4.70;;;1.30;;
7501;SDS011;3792;47.740;7.606;2024-03-23T14:03:11;9.33;;;1.43;;
7501;SDS011;3792;47.740;7.606;2024-03-23T14:05:39;5.90;;;1.77;;
7501;SDS011;3792;47.740;7.606;2024-03-23T14:08:05;2.47;;;1.40;;
7501;SDS011;3792;47.740;7.606;2024-03-23T14:10:35;2.47;;;1.00;;
7501;SDS011;3792;47.740;7.606;2024-03-23T14:13:02;3.93;;;1.10;;
7501;SDS011;3792;47.740;7.606;2024-03-23T14:15:29;6.10;;;1.70;;
7501;SDS011;3792;47.740;7.606;2024-03-23T14:17:56;2.13;;;1.10;;
7501;SDS011;3792;47.740;7.606;2024-03-23T14:20:23;3.30;;;1.10;;
7501;SDS011;3792;47.740;7.606;2024-03-23T14:22:49;4.30;;;1.30;;
7501;SDS011;3792;47.740;7.606;2024-03-23T14:25:17;6.30;;;1.43;;
7501;SDS011;3792;47.740;7.606;2024-03-23T14:27:45;4.03;;;1.30;;
7501;SDS011;3792;47.740;7.606;2024-03-23T14:30:12;4.10;;;1.37;;
7501;SDS011;3792;47.740;7.606;2024-03-23T14:32:39;2.07;;;0.90;;
7501;SDS011;3792;47.740;7.606;2024-03-23T14:35:06;3.70;;;1.53;;
7501;SDS011;3792;47.740;7.606;2024-03-23T14:37:36;4.43;;;1.77;;
7501;SDS011;3792;47.740;7.606;2024-03-23T14:40:03;3.17;;;1.37;;
7501;SDS011;3792;47.740;7.606;2024-03-23T14:42:30;3.77;;;1.20;;
7501;SDS011;3792;47.740;7.606;2024-03-23T14:44:59;3.13;;;1.70;;
7501;SDS011;3792;47.740;7.606;2024-03-23T14:47:25;3.90;;;1.30;;
7501;SDS011;3792;47.740;7.606;2024-03-23T14:49:52;3.40;;;1.23;;
7501;SDS011;3792;47.740;7.606;2024-03-23T14:52:18;3.00;;;1.33;;
7501;SDS011;3792;47.740;7.606;2024-03-23T14:54:46;3.17;;;1.20;;
7501;SDS011;3792;47.740;7.606;2024-03-23T14:57:12;2.67;;;1.20;;
7501;SDS011;3792;47.740;7.606;2024-03-23T14:59:39;2.30;;;1.00;;
7501;SDS011;3792;47.740;7.606;2024-03-23T15:02:07;3.00;;;1.00;;
7501;SDS011;3792;47.740;7.606;2024-03-23T15:04:34;3.60;;;1.10;;
7501;SDS011;3792;47.740;7.606;2024-03-23T15:07:01;1.87;;;1.00;;
7501;SDS011;3792;47.740;7.606;2024-03-23T15:09:28;3.30;;;1.07;;
7501;SDS011;3792;47.740;7.606;2024-03-23T15:11:54;2.10;;;1.23;;
7501;SDS011;3792;47.740;7.606;2024-03-23T15:14:21;2.20;;;1.20;;
7501;SDS011;3792;47.740;7.606;2024-03-23T15:16:48;3.83;;;1.17;;
7501;SDS011;3792;47.740;7.606;2024-03-23T15:19:19;4.37;;;1.43;;
7501;SDS011;3792;47.740;7.606;2024-03-23T15:21:45;2.40;;;0.90;;
7501;SDS011;3792;47.740;7.606;2024-03-23T15:24:12;6.93;;;1.43;;
7501;SDS011;3792;47.740;7.606;2024-03-23T15:26:38;3.53;;;1.27;;
7501;SDS011;3792;47.740;7.606;2024-03-23T15:29:06;4.83;;;1.30;;
7501;SDS011;3792;47.740;7.606;2024-03-23T15:31:36;1.87;;;1.10;;
7501;SDS011;3792;47.740;7.606;2024-03-23T15:34:04;2.53;;;1.07;;
7501;SDS011;3792;47.740;7.606;2024-03-23T15:36:31;3.13;;;1.37;;
7501;SDS011;3792;47.740;7.606;2024-03-23T15:38:58;2.57;;;1.10;;
7501;SDS011;3792;47.740;7.606;2024-03-23T15:41:24;3.20;;;1.23;;
7501;SDS011;3792;47.740;7.606;2024-03-23T15:43:51;2.83;;;1.07;;
7501;SDS011;3792;47.740;7.606;2024-03-23T15:46:18;5.03;;;1.20;;
7501;SDS011;3792;47.740;7.606;2024-03-23T15:48:45;2.13;;;1.10;;
7501;SDS011;3792;47.740;7.606;2024-03-23T15:51:12;2.33;;;1.17;;
7501;SDS011;3792;47.740;7.606;2024-03-23T15:53:41;5.10;;;1.20;;
7501;SDS011;3792;47.740;7.606;2024-03-23T15:56:07;3.43;;;1.10;;
7501;SDS011;3792;47.740;7.606;2024-03-23T15:58:35;8.70;;;4.70;;
7501;SDS011;3792;47.740;7.606;2024-03-23T16:01:01;6.53;;;1.77;;
7501;SDS011;3792;47.740;7.606;2024-03-23T16:03:29;2.60;;;1.20;;
7501;SDS011;3792;47.740;7.606;2024-03-23T16:05:57;4.50;;;1.13;;
7501;SDS011;3792;47.740;7.606;2024-03-23T16:08:25;2.17;;;1.30;;
7501;SDS011;3792;47.740;7.606;2024-03-23T16:10:53;2.40;;;1.10;;
7501;SDS011;3792;47.740;7.606;2024-03-23T16:13:21;1.70;;;1.30;;
7501;SDS011;3792;47.740;7.606;2024-03-23T16:15:54;5.47;;;1.03;;
7501;SDS011;3792;47.740;7.606;2024-03-23T16:18:21;3.50;;;1.43;;